Time,TemperatureF,DewpointF,PressureIn,WindDirection,WindDirectionDegrees,WindSpeedMPH,WindSpeedGustMPH,Humidity,HourlyPrecipIn,Conditions,Clouds,dailyrainin,SoftwareType,DateUTC
2013-09-28 00:13:00,60.0,53.0,30.04,SE,142,2.0,4.0,78,0.00,,,0.00,,2013-09-28 05:13:00,
2013-09-28 00:22:00,60.0,53.0,30.04,ESE,115,3.0,6.0,78,0.00,,,0.00,,2013-09-28 05:22:00,
2013-09-28 00:53:00,59.0,52.0,30.04,ESE,117,3.0,7.0,79,0.00,,,0.00,,2013-09-28 05:53:00,
2013-09-28 01:13:00,58.0,52.0,30.03,SE,130,3.0,6.0,80,0.00,,,0.00,,2013-09-28 06:13:00,
2013-09-28 01:22:00,58.0,52.0,30.03,SE,144,3.0,7.0,81,0.00,,,0.00,,2013-09-28 06:22:00,
2013-09-28 01:42:00,58.0,53.0,30.03,SE,140,3.0,6.0,82,0.00,,,0.00,,2013-09-28 06:42:00,
2013-09-28 01:52:00,57.0,52.0,30.03,SE,129,3.0,8.0,83,0.00,,,0.00,,2013-09-28 06:52:00,
2013-09-28 02:12:00,57.0,52.0,30.03,SE,132,3.0,6.0,84,0.00,,,0.00,,2013-09-28 07:12:00,
2013-09-28 02:22:00,57.0,52.0,30.03,ESE,115,2.0,5.0,84,0.00,,,0.00,,2013-09-28 07:22:00,
2013-09-28 02:42:00,56.0,52.0,30.03,SE,132,3.0,7.0,85,0.00,,,0.00,,2013-09-28 07:42:00,
2013-09-28 02:52:00,56.0,52.0,30.03,ESE,121,2.0,6.0,85,0.00,,,0.00,,2013-09-28 07:52:00,
2013-09-28 03:13:00,56.0,52.0,30.02,SE,132,2.0,7.0,86,0.00,,,0.00,,2013-09-28 08:13:00,
2013-09-28 03:21:00,56.0,52.0,30.02,SE,135,3.0,6.0,86,0.00,,,0.00,,2013-09-28 08:21:00,
2013-09-28 03:43:00,55.0,51.0,30.02,SE,130,2.0,5.0,87,0.00,,,0.00,,2013-09-28 08:43:00,
2013-09-28 03:53:00,55.0,51.0,30.02,SE,135,2.0,7.0,87,0.00,,,0.00,,2013-09-28 08:53:00,
2013-09-28 04:11:00,55.0,52.0,30.03,ESE,123,2.0,6.0,88,0.00,,,0.00,,2013-09-28 09:11:00,
2013-09-28 04:22:00,55.0,52.0,30.03,SSE,148,2.0,5.0,88,0.00,,,0.00,,2013-09-28 09:22:00,
2013-09-28 04:54:00,55.0,52.0,30.03,SE,132,2.0,7.0,89,0.00,,,0.00,,2013-09-28 09:54:00,
2013-09-28 05:13:00,54.0,51.0,30.02,ESE,121,2.0,5.0,89,0.00,,,0.00,,2013-09-28 10:13:00,
2013-09-28 05:22:00,54.0,51.0,30.02,SE,127,2.0,6.0,90,0.00,,,0.00,,2013-09-28 10:22:00,
2013-09-28 05:43:00,53.0,50.0,30.02,SE,128,2.0,5.0,91,0.00,,,0.00,,2013-09-28 10:43:00,
2013-09-28 05:52:00,53.0,50.0,30.03,SE,134,2.0,6.0,91,0.00,,,0.00,,2013-09-28 10:52:00,
2013-09-28 06:12:00,53.0,51.0,30.03,SE,130,3.0,7.0,92,0.00,,,0.00,,2013-09-28 11:12:00,
2013-09-28 06:22:00,53.0,51.0,30.03,SE,131,3.0,7.0,92,0.00,,,0.00,,2013-09-28 11:22:00,
2013-09-28 06:43:00,53.0,51.0,30.03,SE,134,3.0,7.0,92,0.00,,,0.00,,2013-09-28 11:43:00,
2013-09-28 06:52:00,53.0,51.0,30.03,ESE,122,4.0,8.0,93,0.00,,,0.00,,2013-09-28 11:52:00,
2013-09-28 07:12:00,54.0,52.0,30.03,ESE,113,4.0,8.0,93,0.00,,,0.00,,2013-09-28 12:12:00,
2013-09-28 07:22:00,54.0,52.0,30.04,SE,145,4.0,9.0,93,0.00,,,0.00,,2013-09-28 12:22:00,
2013-09-28 07:42:00,54.0,52.0,30.05,SE,126,3.0,8.0,93,0.00,,,0.00,,2013-09-28 12:42:00,
2013-09-28 07:52:00,54.0,52.0,30.05,SE,131,3.0,7.0,93,0.00,,,0.00,,2013-09-28 12:52:00,
2013-09-28 08:12:00,55.0,53.0,30.05,SSE,159,3.0,8.0,92,0.00,,,0.00,,2013-09-28 13:12:00,
2013-09-28 08:22:00,56.0,54.0,30.05,SE,140,3.0,7.0,92,0.00,,,0.00,,2013-09-28 13:22:00,
2013-09-28 08:52:00,59.0,56.0,30.05,ESE,121,2.0,6.0,91,0.00,,,0.00,,2013-09-28 13:52:00,
2013-09-28 09:12:00,61.0,57.0,30.05,SSE,153,3.0,7.0,88,0.00,,,0.00,,2013-09-28 14:12:00,
2013-09-28 09:21:00,64.0,59.0,30.05,South,173,3.0,9.0,85,0.00,,,0.00,,2013-09-28 14:21:00,
2013-09-28 09:42:00,66.0,60.0,30.04,SSE,166,4.0,10.0,81,0.00,,,0.00,,2013-09-28 14:42:00,
2013-09-28 09:52:00,68.0,61.0,30.04,SSW,203,4.0,10.0,78,0.00,,,0.00,,2013-09-28 14:52:00,
2013-09-28 10:12:00,69.0,60.0,30.04,SSW,200,4.0,15.0,74,0.00,,,0.00,,2013-09-28 15:12:00,
2013-09-28 10:23:00,70.0,61.0,30.04,SSW,198,6.0,13.0,74,0.00,,,0.00,,2013-09-28 15:23:00,
2013-09-28 10:44:00,72.0,62.0,30.03,SSW,196,7.0,17.0,71,0.00,,,0.00,,2013-09-28 15:44:00,
2013-09-28 10:54:00,74.0,62.0,30.03,South,173,7.0,14.0,67,0.00,,,0.00,,2013-09-28 15:54:00,
2013-09-28 11:14:00,75.0,62.0,30.02,South,185,8.0,17.0,65,0.00,,,0.00,,2013-09-28 16:14:00,
2013-09-28 11:24:00,76.0,62.0,30.02,South,188,9.0,21.0,63,0.00,,,0.00,,2013-09-28 16:24:00,
2013-09-28 11:43:00,77.0,63.0,30.01,SSW,199,9.0,18.0,61,0.00,,,0.00,,2013-09-28 16:43:00,
2013-09-28 11:54:00,78.0,62.0,30.01,SW,232,9.0,19.0,59,0.00,,,0.00,,2013-09-28 16:54:00,
2013-09-28 12:13:00,78.0,61.0,30.00,SSW,202,14.0,22.0,55,0.00,,,0.00,,2013-09-28 17:13:00,
2013-09-28 12:23:00,79.0,61.0,29.99,SW,224,10.0,22.0,55,0.00,,,0.00,,2013-09-28 17:23:00,
2013-09-28 12:43:00,79.0,59.0,29.99,SSW,213,12.0,27.0,51,0.00,,,0.00,,2013-09-28 17:43:00,
2013-09-28 12:52:00,80.0,59.0,29.98,South,178,11.0,25.0,48,0.00,,,0.00,,2013-09-28 17:52:00,
2013-09-28 13:12:00,80.0,59.0,29.97,SW,235,11.0,23.0,48,0.00,,,0.00,,2013-09-28 18:12:00,
2013-09-28 13:22:00,81.0,59.0,29.97,SSW,192,12.0,21.0,48,0.00,,,0.00,,2013-09-28 18:22:00,
2013-09-28 13:42:00,81.0,59.0,29.97,South,184,14.0,24.0,47,0.00,,,0.00,,2013-09-28 18:42:00,
2013-09-28 13:52:00,81.0,59.0,29.97,SW,217,14.0,26.0,47,0.00,,,0.00,,2013-09-28 18:52:00,
2013-09-28 14:11:00,80.0,60.0,29.97,SSW,192,10.0,21.0,50,0.00,,,0.00,,2013-09-28 19:11:00,
2013-09-28 14:22:00,79.0,59.0,29.96,SSW,213,13.0,23.0,51,0.00,,,0.00,,2013-09-28 19:22:00,
2013-09-28 14:42:00,82.0,61.0,29.96,SSW,207,11.0,21.0,49,0.00,,,0.00,,2013-09-28 19:42:00,
2013-09-28 14:52:00,80.0,60.0,29.96,SSE,157,7.0,21.0,51,0.00,,,0.00,,2013-09-28 19:52:00,
2013-09-28 15:12:00,82.0,60.0,29.95,SW,221,15.0,23.0,48,0.00,,,0.00,,2013-09-28 20:12:00,
2013-09-28 15:22:00,81.0,59.0,29.95,SSW,212,13.0,21.0,48,0.00,,,0.00,,2013-09-28 20:22:00,
2013-09-28 15:43:00,81.0,60.0,29.95,SW,225,13.0,21.0,49,0.00,,,0.00,,2013-09-28 20:43:00,
2013-09-28 15:52:00,81.0,60.0,29.94,SSE,157,11.0,26.0,49,0.00,,,0.00,,2013-09-28 20:52:00,
2013-09-28 16:12:00,82.0,60.0,29.93,SSW,207,13.0,20.0,48,0.00,,,0.00,,2013-09-28 21:12:00,
2013-09-28 16:23:00,81.0,61.0,29.93,SW,221,8.0,21.0,50,0.00,,,0.00,,2013-09-28 21:23:00,
2013-09-28 16:44:00,80.0,60.0,29.93,SW,215,8.0,21.0,51,0.00,,,0.00,,2013-09-28 21:44:00,
2013-09-28 16:55:00,80.0,60.0,29.92,South,190,9.0,20.0,50,0.00,,,0.00,,2013-09-28 21:55:00,
2013-09-28 17:13:00,80.0,60.0,29.92,SSW,196,10.0,19.0,51,0.00,,,0.00,,2013-09-28 22:13:00,
2013-09-28 17:23:00,80.0,61.0,29.91,SSW,209,8.0,16.0,52,0.00,,,0.00,,2013-09-28 22:23:00,
2013-09-28 17:43:00,80.0,60.0,29.91,SE,132,6.0,20.0,51,0.00,,,0.00,,2013-09-28 22:43:00,
2013-09-28 17:54:00,79.0,60.0,29.91,SSW,200,6.0,18.0,52,0.00,,,0.00,,2013-09-28 22:54:00,
2013-09-28 18:12:00,79.0,60.0,29.91,SSW,196,6.0,12.0,53,0.00,,,0.00,,2013-09-28 23:12:00,
2013-09-28 18:22:00,79.0,60.0,29.91,South,186,6.0,14.0,53,0.00,,,0.00,,2013-09-28 23:22:00,
2013-09-28 18:43:00,78.0,59.0,29.91,SSW,194,6.0,16.0,53,0.00,,,0.00,,2013-09-28 23:43:00,
2013-09-28 18:52:00,78.0,61.0,29.91,SSW,192,4.0,10.0,55,0.00,,,0.00,,2013-09-28 23:52:00,
2013-09-28 19:11:00,77.0,60.0,29.91,SSW,201,5.0,10.0,56,0.00,,,0.00,,2013-09-29 00:11:00,
2013-09-28 19:22:00,77.0,60.0,29.91,SSW,210,6.0,13.0,56,0.00,,,0.00,,2013-09-29 00:22:00,
2013-09-28 19:43:00,77.0,61.0,29.91,SSE,149,4.0,9.0,57,0.00,,,0.00,,2013-09-29 00:43:00,
2013-09-28 19:52:00,76.0,60.0,29.91,South,186,5.0,8.0,58,0.00,,,0.00,,2013-09-29 00:52:00,
2013-09-28 20:12:00,76.0,61.0,29.91,SW,227,4.0,10.0,59,0.00,,,0.00,,2013-09-29 01:12:00,
2013-09-28 20:22:00,76.0,61.0,29.92,South,175,5.0,8.0,59,0.00,,,0.00,,2013-09-29 01:22:00,
2013-09-28 20:43:00,75.0,60.0,29.91,South,169,4.0,8.0,59,0.00,,,0.00,,2013-09-29 01:43:00,
2013-09-28 20:52:00,75.0,60.0,29.92,South,171,4.0,11.0,60,0.00,,,0.00,,2013-09-29 01:52:00,
2013-09-28 21:12:00,75.0,60.0,29.92,SSW,209,6.0,10.0,60,0.00,,,0.00,,2013-09-29 02:12:00,
2013-09-28 21:22:00,75.0,61.0,29.93,SSW,198,6.0,12.0,61,0.00,,,0.00,,2013-09-29 02:22:00,
2013-09-28 21:43:00,74.0,60.0,29.92,SSW,205,4.0,9.0,62,0.00,,,0.00,,2013-09-29 02:43:00,
2013-09-28 21:53:00,74.0,60.0,29.92,South,190,6.0,9.0,61,0.00,,,0.00,,2013-09-29 02:53:00,
2013-09-28 22:12:00,74.0,60.0,29.92,South,179,7.0,18.0,62,0.00,,,0.00,,2013-09-29 03:12:00,
2013-09-28 22:23:00,74.0,61.0,29.92,South,188,4.0,12.0,63,0.00,,,0.00,,2013-09-29 03:23:00,
2013-09-28 22:55:00,74.0,60.0,29.92,South,171,5.0,12.0,62,0.00,,,0.00,,2013-09-29 03:55:00,
2013-09-28 23:02:00,-999.0,-99.9,29.92,SSW,201,6.0,13.0,-999,-99.99,,,-99.99,,2013-09-29 04:02:00,
2013-09-28 23:14:00,73.0,60.0,29.92,SSW,201,6.0,13.0,63,0.00,,,0.00,,2013-09-29 04:14:00,
2013-09-28 23:24:00,72.0,61.0,29.93,SSW,205,7.0,14.0,68,0.00,,,0.00,,2013-09-29 04:24:00,
2013-09-28 23:54:00,68.0,63.0,29.94,SW,215,5.0,12.0,83,0.01,,,0.01,,2013-09-29 04:54:00,